Time;durP1;ratioP1;P1;durP2;ratioP2;P2;SDS_P1;SDS_P2;PMS_P1;PMS_P2;Temp;Humidity;BMP_temperature;BMP_pressure;BME280_temperature;BME280_humidity;BME280_pressure;Samples;Min_cycle;Max_cycle;Signal;HPM_P1;HPM_P2
2022/04/19 00:00:23;;;;;;;1.10;1.10;;;18.40;82.70;;;;;;4943610;28;97261;-57
2022/04/19 00:02:54;;;;;;;;;;;18.40;83.00;;;;;;4949959;28;96522;-57
2022/04/19 00:05:27;;;;;;;3.20;1.83;;;18.50;82.70;;;;;;4966649;28;95150;-56
2022/04/19 00:08:05;;;;;;;4.38;1.60;;;18.50;82.70;;;;;;4958617;28;95958;-58
2022/04/19 00:10:37;;;;;;;3.38;1.98;;;18.50;82.60;;;;;;4960208;28;98672;-58
2022/04/19 00:13:11;;;;;;;2.75;2.22;;;18.50;83.30;;;;;;4962592;28;95921;-58
2022/04/19 00:15:42;;;;;;;4.50;1.95;;;18.50;82.60;;;;;;4941788;28;98422;-50
2022/04/19 00:18:15;;;;;;;4.35;2.17;;;18.60;82.70;;;;;;4951482;28;96199;-55
2022/04/19 00:20:49;;;;;;;4.55;2.38;;;18.60;82.70;;;;;;4958609;28;95247;-54
2022/04/19 00:23:20;;;;;;;3.97;2.30;;;18.50;82.50;;;;;;4978231;28;96521;-53
2022/04/19 00:25:53;;;;;;;3.40;2.65;;;18.60;82.50;;;;;;4952345;28;95731;-57
2022/04/19 00:28:23;;;;;;;5.22;2.80;;;18.60;82.40;;;;;;4965460;28;97499;-56
2022/04/19 00:30:58;;;;;;;3.20;2.08;;;18.50;82.40;;;;;;4947880;28;95915;-52
2022/04/19 00:33:30;;;;;;;3.80;2.03;;;18.50;82.40;;;;;;4936514;28;95844;-55
2022/04/19 00:36:01;;;;;;;4.93;1.98;;;18.60;82.50;;;;;;4942981;28;95776;-54
2022/04/19 00:38:32;;;;;;;3.78;1.88;;;18.50;82.30;;;;;;4950357;28;95393;-54
2022/04/19 00:41:04;;;;;;;;;;;18.60;82.40;;;;;;4940291;28;96156;-53
2022/04/19 00:43:35;;;;;;;2.72;1.65;;;18.50;82.40;;;;;;4941350;28;96307;-56
2022/04/19 00:46:06;;;;;;;2.83;1.70;;;18.50;82.40;;;;;;4932578;28;95894;-54
2022/04/19 00:48:36;;;;;;;5.40;2.78;;;18.50;82.50;;;;;;4966131;28;95966;-56
2022/04/19 00:51:10;;;;;;;5.68;1.80;;;18.50;82.50;;;;;;4952907;28;96126;-54
2022/04/19 00:53:43;;;;;;;2.50;1.50;;;18.50;82.50;;;;;;4961918;28;96428;-55
2022/04/19 00:56:13;;;;;;;;;;;18.50;82.50;;;;;;4999247;28;97233;-58
2022/04/19 00:58:44;;;;;;;3.08;1.95;;;18.50;81.30;;;;;;4970120;28;95734;-57
2022/04/19 01:01:16;;;;;;;4.68;2.25;;;18.50;81.40;;;;;;4953436;28;96127;-53
2022/04/19 01:03:46;;;;;;;2.00;1.42;;;18.50;82.50;;;;;;4946158;28;96103;-56
2022/04/19 01:06:21;;;;;;;3.50;2.08;;;18.50;82.50;;;;;;4947786;28;95428;-53
2022/04/19 01:08:53;;;;;;;3.47;2.28;;;18.50;82.50;;;;;;4933187;28;95302;-54
2022/04/19 01:14:17;;;;;;;3.92;2.13;;;18.50;82.50;;;;;;4945720;28;98626;-57
2022/04/19 01:16:47;;;;;;;2.65;1.80;;;18.50;82.50;;;;;;4947961;28;97726;-56
2022/04/19 01:19:20;;;;;;;2.38;1.63;;;18.50;82.50;;;;;;4949572;28;96017;-52
2022/04/19 01:21:57;;;;;;;2.25;1.88;;;18.50;82.40;;;;;;4950258;28;95641;-55
2022/04/19 01:24:36;;;;;;;2.45;1.33;;;18.50;82.50;;;;;;4970144;28;96781;-55
2022/04/19 01:27:08;;;;;;;1.75;1.45;;;18.50;82.40;;;;;;4968811;28;95369;-53
2022/04/19 01:29:42;;;;;;;3.70;1.90;;;18.40;82.50;;;;;;4978767;28;95326;-52
2022/04/19 01:32:17;;;;;;;2.72;1.52;;;18.50;82.60;;;;;;4923365;28;96275;-55
2022/04/19 01:34:49;;;;;;;2.08;1.60;;;18.40;82.40;;;;;;4948016;28;97019;-56
2022/04/19 01:37:21;;;;;;;1.77;1.60;;;18.40;82.50;;;;;;4940809;28;95810;-52
2022/04/19 01:42:43;;;;;;;2.90;2.03;;;18.50;82.60;;;;;;4934354;28;96010;-54
2022/04/19 01:45:19;;;;;;;1.85;1.60;;;18.40;82.60;;;;;;4940298;28;98478;-55
2022/04/19 01:47:55;;;;;;;1.95;1.75;;;18.40;82.70;;;;;;4967563;28;95732;-55
2022/04/19 01:50:27;;;;;;;4.30;1.20;;;18.40;82.60;;;;;;4955118;28;95708;-56
2022/04/19 01:53:00;;;;;;;2.53;1.88;;;18.40;82.60;;;;;;4968764;28;95968;-56
2022/04/19 01:55:32;;;;;;;2.97;1.63;;;18.40;82.60;;;;;;4965978;28;96071;-57
2022/04/19 01:58:08;;;;;;;2.13;1.80;;;18.40;82.70;;;;;;4962595;28;97441;-56
2022/04/19 02:00:41;;;;;;;2.67;1.92;;;18.40;82.70;;;;;;4954766;28;95656;-54
2022/04/19 02:03:17;;;;;;;3.70;1.83;;;18.40;82.60;;;;;;4967496;28;95805;-56
2022/04/19 02:05:50;;;;;;;2.10;1.70;;;18.40;82.60;;;;;;4955868;28;96139;-56
2022/04/19 02:08:22;;;;;;;1.70;1.60;;;18.50;82.60;;;;;;4964652;28;96741;-53
2022/04/19 02:10:53;;;;;;;1.97;1.50;;;18.50;82.50;;;;;;4958075;28;95733;-55
2022/04/19 02:13:27;;;;;;;3.05;1.50;;;18.50;82.50;;;;;;4952052;28;95469;-54
2022/04/19 02:16:17;;;;;;;3.00;1.65;;;18.50;82.40;;;;;;4940265;28;96242;-56
2022/04/19 02:18:49;;;;;;;4.65;2.00;;;18.50;82.40;;;;;;4941182;28;97348;-52
2022/04/19 02:21:21;;;;;;;1.85;1.45;;;18.50;82.50;;;;;;4934137;28;95631;-54
2022/04/19 02:23:51;;;;;;;;;;;18.50;82.40;;;;;;4933988;28;95772;-57
2022/04/19 02:26:24;;;;;;;1.95;1.50;;;18.50;82.40;;;;;;4963602;28;95891;-52
2022/04/19 02:28:58;;;;;;;3.95;1.98;;;18.50;81.20;;;;;;4934665;28;95742;-56
2022/04/19 02:31:35;;;;;;;2.33;1.73;;;18.50;82.50;;;;;;4937315;28;96001;-52
2022/04/19 02:34:06;;;;;;;1.83;1.70;;;18.50;82.40;;;;;;4964317;28;95612;-55
2022/04/19 02:36:39;;;;;;;2.00;1.80;;;18.50;82.40;;;;;;4967791;28;95950;-56
2022/04/19 02:39:10;;;;;;;1.75;1.60;;;18.50;82.40;;;;;;4955083;28;96069;-57
2022/04/19 02:41:42;;;;;;;1.42;1.33;;;18.50;82.30;;;;;;4952798;28;96183;-53
2022/04/19 02:44:14;;;;;;;2.40;1.75;;;18.50;82.30;;;;;;4981866;28;95928;-50
2022/04/19 02:46:59;;;;;;;2.10;1.70;;;18.50;82.40;;;;;;4930594;28;96123;-55
2022/04/19 02:49:29;;;;;;;1.67;1.20;;;18.50;82.30;;;;;;4927926;28;95563;-57
2022/04/19 02:51:59;;;;;;;2.00;1.63;;;18.50;82.30;;;;;;4942828;28;95458;-56
2022/04/19 02:54:29;;;;;;;1.23;1.13;;;18.60;82.20;;;;;;4944273;28;95513;-52
2022/04/19 02:57:00;;;;;;;1.53;1.43;;;18.50;82.10;;;;;;4942118;28;98825;-55
2022/04/19 02:59:30;;;;;;;2.03;1.58;;;18.50;82.20;;;;;;4935568;28;95971;-55
2022/04/19 03:02:01;;;;;;;2.63;1.52;;;18.50;82.20;;;;;;4937661;28;95754;-58
2022/04/19 03:04:33;;;;;;;;;;;18.60;82.30;;;;;;4940846;28;95734;-56
2022/04/19 03:07:05;;;;;;;1.70;1.20;;;18.50;82.20;;;;;;4933310;28;95673;-52
2022/04/19 03:09:36;;;;;;;1.45;1.35;;;18.50;82.20;;;;;;4944103;28;97800;-56
2022/04/19 03:12:06;;;;;;;1.65;1.40;;;18.50;82.20;;;;;;4941300;28;96618;-53
2022/04/19 03:14:39;;;;;;;1.48;1.38;;;18.50;82.10;;;;;;4946799;28;95965;-54
2022/04/19 03:17:10;;;;;;;1.58;1.42;;;18.50;82.20;;;;;;4934058;28;98581;-52
2022/04/19 03:19:41;;;;;;;2.10;1.85;;;18.50;82.20;;;;;;4940816;28;95961;-55
2022/04/19 03:22:12;;;;;;;1.27;1.17;;;18.60;82.30;;;;;;4941367;28;95806;-53
2022/04/19 03:27:43;;;;;;;2.15;1.80;;;18.60;82.20;;;;;;4933216;28;97863;-54
2022/04/19 03:30:20;;;;;;;1.20;1.10;;;18.60;82.20;;;;;;4938656;28;97130;-56
2022/04/19 03:32:54;;;;;;;1.05;1.05;;;18.60;82.20;;;;;;4964134;28;95324;-52
2022/04/19 03:35:25;;;;;;;2.25;1.30;;;18.60;82.40;;;;;;4964910;28;95699;-52
2022/04/19 03:37:56;;;;;;;1.70;1.60;;;18.60;82.50;;;;;;4950694;28;97965;-52
2022/04/19 03:40:27;;;;;;;1.63;1.35;;;18.60;82.50;;;;;;4952640;28;97808;-53
2022/04/19 03:42:57;;;;;;;1.38;1.27;;;18.50;82.50;;;;;;4955178;28;95416;-55
2022/04/19 03:45:29;;;;;;;1.67;1.58;;;18.50;82.50;;;;;;4942872;28;96171;-55
2022/04/19 03:48:00;;;;;;;1.48;1.38;;;18.50;82.50;;;;;;4965048;28;96743;-55
2022/04/19 03:50:31;;;;;;;1.63;1.42;;;18.50;82.50;;;;;;4961072;28;97462;-57
2022/04/19 03:53:02;;;;;;;1.45;1.35;;;18.50;82.60;;;;;;4961991;28;96049;-57
2022/04/19 03:55:33;;;;;;;2.20;1.35;;;18.50;82.70;;;;;;4946746;28;95860;-50
2022/04/19 03:58:06;;;;;;;1.50;1.40;;;18.50;82.60;;;;;;4950016;28;96119;-55
2022/04/19 04:00:37;;;;;;;2.10;1.20;;;18.40;82.50;;;;;;4950593;28;95807;-54
2022/04/19 04:03:09;;;;;;;2.25;1.00;;;18.40;82.60;;;;;;4934315;28;95827;-51
2022/04/19 04:05:40;;;;;;;2.58;1.23;;;18.40;82.50;;;;;;4947133;28;97593;-54
2022/04/19 04:08:12;;;;;;;1.10;1.00;;;18.40;82.40;;;;;;4938720;28;97414;-54
2022/04/19 04:10:51;;;;;;;2.58;1.40;;;18.40;82.50;;;;;;4927258;28;95968;-55
2022/04/19 04:13:28;;;;;;;1.30;1.20;;;18.40;82.40;;;;;;4943950;28;95909;-52
2022/04/19 04:15:58;;;;;;;;;;;18.40;82.50;;;;;;4932986;28;97915;-53
2022/04/19 04:18:31;;;;;;;1.50;1.10;;;18.40;82.40;;;;;;4980923;28;96667;-55
2022/04/19 04:21:02;;;;;;;1.33;1.23;;;18.40;82.40;;;;;;4958356;28;97046;-55
2022/04/19 04:23:34;;;;;;;2.47;1.08;;;18.40;82.40;;;;;;4958594;28;95555;-54
2022/04/19 04:26:12;;;;;;;2.95;1.00;;;18.40;82.40;;;;;;4958178;28;97978;-53
2022/04/19 04:28:43;;;;;;;1.58;1.00;;;18.30;82.40;;;;;;4960462;28;98067;-53
2022/04/19 04:31:14;;;;;;;1.15;1.05;;;18.30;82.30;;;;;;4956209;28;95967;-52
2022/04/19 04:33:45;;;;;;;1.02;1.02;;;18.30;82.30;;;;;;4956354;28;96697;-55
2022/04/19 04:36:19;;;;;;;1.45;1.00;;;18.30;82.40;;;;;;4968037;28;96072;-54
2022/04/19 04:38:50;;;;;;;1.48;1.08;;;18.30;82.30;;;;;;4956902;28;95854;-51
2022/04/19 04:41:32;;;;;;;1.58;1.48;;;18.30;82.30;;;;;;4973416;28;95988;-56
2022/04/19 04:44:05;;;;;;;1.55;1.40;;;18.30;81.80;;;;;;4989534;28;96045;-50
2022/04/19 04:49:39;;;;;;;1.05;0.98;;;18.30;82.30;;;;;;4961734;28;98168;-59
2022/04/19 04:52:16;;;;;;;1.50;1.10;;;18.30;82.30;;;;;;4953983;28;95970;-57
2022/04/19 04:54:47;;;;;;;1.42;1.10;;;18.30;82.30;;;;;;4954436;28;95845;-58
2022/04/19 04:57:23;;;;;;;1.35;1.00;;;18.20;82.20;;;;;;4950341;28;95777;-56
2022/04/19 04:59:54;;;;;;;1.17;1.10;;;18.30;82.20;;;;;;4960606;28;96323;-56
2022/04/19 05:02:28;;;;;;;0.93;0.85;;;18.30;82.20;;;;;;4936983;28;95937;-53
2022/04/19 05:04:59;;;;;;;1.20;1.05;;;18.30;82.10;;;;;;4973455;28;95858;-52
2022/04/19 05:07:29;;;;;;;0.90;0.90;;;18.20;82.10;;;;;;4958804;28;95346;-54
2022/04/19 05:10:00;;;;;;;1.45;0.95;;;18.20;82.00;;;;;;4961613;28;98355;-53
2022/04/19 05:12:33;;;;;;;1.02;0.73;;;18.20;82.10;;;;;;4960272;28;95588;-57
2022/04/19 05:15:04;;;;;;;1.00;1.00;;;18.20;82.10;;;;;;4960997;28;95310;-55
2022/04/19 05:17:39;;;;;;;1.75;0.70;;;18.20;80.90;;;;;;4966756;28;95403;-56
2022/04/19 05:20:10;;;;;;;2.00;1.08;;;18.20;81.90;;;;;;4964624;28;98058;-55
2022/04/19 05:22:43;;;;;;;0.93;0.93;;;18.20;79.50;;;;;;4960096;28;96658;-54
2022/04/19 05:25:13;;;;;;;1.45;0.80;;;18.20;82.00;;;;;;4956420;28;95509;-51
2022/04/19 05:27:44;;;;;;;;;;;18.20;81.90;;;;;;4950405;28;95619;-54
2022/04/19 05:30:15;;;;;;;1.80;1.27;;;18.20;81.80;;;;;;4956055;28;98394;-55
2022/04/19 05:32:46;;;;;;;;;;;18.20;81.70;;;;;;4964249;28;99979;-55
2022/04/19 05:35:17;;;;;;;1.10;1.00;;;18.20;81.60;;;;;;4951173;28;95951;-54
2022/04/19 05:37:49;;;;;;;0.75;0.75;;;18.10;81.70;;;;;;4959960;28;95434;-56
2022/04/19 05:40:21;;;;;;;0.60;0.60;;;18.10;81.60;;;;;;4962049;28;97017;-55
2022/04/19 05:42:51;;;;;;;;;;;18.10;81.80;;;;;;4955581;28;95832;-56
2022/04/19 05:45:23;;;;;;;0.90;0.90;;;18.20;81.70;;;;;;4985593;28;95953;-56
2022/04/19 05:47:54;;;;;;;0.60;0.60;;;18.10;81.70;;;;;;4949386;28;95964;-54
2022/04/19 05:50:30;;;;;;;1.00;0.70;;;18.10;81.60;;;;;;4963218;28;96471;-56
2022/04/19 05:53:00;;;;;;;1.50;0.85;;;18.10;81.60;;;;;;4949065;28;95889;-56
2022/04/19 05:55:30;;;;;;;1.05;0.95;;;18.10;81.60;;;;;;4942833;28;95759;-57
2022/04/19 05:58:01;;;;;;;0.80;0.80;;;18.10;81.60;;;;;;4940324;28;95990;-56
2022/04/19 06:00:32;;;;;;;0.80;0.80;;;18.10;81.50;;;;;;4969167;28;96682;-55
2022/04/19 06:05:55;;;;;;;0.60;0.60;;;18.00;81.60;;;;;;4964492;28;96129;-54
2022/04/19 06:08:26;;;;;;;1.13;1.00;;;18.00;81.60;;;;;;4965839;28;95991;-52
2022/04/19 06:11:11;;;;;;;0.98;0.80;;;18.00;81.60;;;;;;4970798;28;96914;-52
2022/04/19 06:13:42;;;;;;;1.50;1.25;;;18.00;81.50;;;;;;4962981;28;97366;-55
2022/04/19 06:16:15;;;;;;;1.75;0.73;;;18.00;81.60;;;;;;4951228;28;96597;-52
2022/04/19 06:18:50;;;;;;;1.30;1.17;;;18.00;81.60;;;;;;4923376;28;95704;-56
2022/04/19 06:21:26;;;;;;;2.15;0.88;;;18.00;80.50;;;;;;4961670;28;96226;-55
2022/04/19 06:23:57;;;;;;;0.75;0.63;;;18.00;81.60;;;;;;4945141;28;95994;-54
2022/04/19 06:26:27;;;;;;;0.80;0.80;;;17.90;81.60;;;;;;4945566;28;95848;-54
2022/04/19 06:29:02;;;;;;;1.17;0.90;;;18.00;81.50;;;;;;4944997;28;95703;-56
2022/04/19 06:31:43;;;;;;;0.98;0.70;;;17.90;81.50;;;;;;4937247;28;96390;-53
2022/04/19 06:34:26;;;;;;;1.15;0.75;;;17.90;81.50;;;;;;4950061;28;97172;-57
2022/04/19 06:37:23;;;;;;;1.10;1.00;;;17.90;81.30;;;;;;4951898;28;95500;-56
2022/04/19 06:40:06;;;;;;;2.15;0.93;;;17.90;81.30;;;;;;4952510;28;95845;-53
2022/04/19 06:42:37;;;;;;;1.48;1.10;;;17.90;81.40;;;;;;4961424;28;96262;-55
2022/04/19 06:45:20;;;;;;;0.80;0.80;;;17.90;81.30;;;;;;4942112;28;95606;-50
2022/04/19 06:48:05;;;;;;;0.80;0.80;;;17.90;81.40;;;;;;4966491;28;95879;-56
2022/04/19 06:50:36;;;;;;;1.63;1.10;;;17.90;81.40;;;;;;4956965;28;95646;-55
2022/04/19 06:53:10;;;;;;;2.08;1.13;;;17.80;81.40;;;;;;4967180;28;96165;-56
2022/04/19 06:56:04;;;;;;;1.75;0.80;;;17.80;81.40;;;;;;4960591;28;97210;-56
2022/04/19 06:58:39;;;;;;;1.00;1.00;;;17.80;81.30;;;;;;4972888;28;95871;-52
2022/04/19 07:01:10;;;;;;;1.40;0.80;;;17.80;81.30;;;;;;4939936;28;95784;-52
2022/04/19 07:03:44;;;;;;;1.75;0.70;;;17.80;81.30;;;;;;4931221;28;96821;-56
2022/04/19 07:06:29;;;;;;;1.45;0.90;;;17.80;81.20;;;;;;4947644;28;96064;-56
2022/04/19 07:09:01;;;;;;;1.27;0.60;;;17.70;81.10;;;;;;4942539;28;95286;-55
2022/04/19 07:11:32;;;;;;;1.05;0.95;;;17.80;81.20;;;;;;4941384;28;96014;-53
2022/04/19 07:14:14;;;;;;;0.70;0.70;;;17.70;81.10;;;;;;4926908;28;98330;-52
2022/04/19 07:17:09;;;;;;;1.10;1.00;;;17.80;81.10;;;;;;4921069;28;95493;-54
2022/04/19 07:28:22;;;;;;;1.30;0.80;;;17.70;81.10;;;;;;4948883;28;95940;-56
2022/04/19 07:30:53;;;;;;;2.20;1.10;;;17.70;81.10;;;;;;4920266;28;95423;-53
2022/04/19 07:33:25;;;;;;;1.20;1.02;;;17.60;81.10;;;;;;4930077;28;96025;-54
2022/04/19 07:35:57;;;;;;;1.35;1.00;;;17.60;81.10;;;;;;4942153;28;96741;-55
2022/04/19 07:38:28;;;;;;;1.13;0.70;;;17.60;81.20;;;;;;4928038;28;97226;-51
2022/04/19 07:41:20;;;;;;;1.83;0.90;;;17.60;81.20;;;;;;4930067;28;95958;-56
2022/04/19 07:43:52;;;;;;;2.95;0.98;;;17.60;81.40;;;;;;4939678;28;95371;-54
2022/04/19 07:46:24;;;;;;;2.58;1.25;;;17.60;80.20;;;;;;4921336;28;97057;-54
2022/04/19 07:48:54;;;;;;;2.50;0.80;;;17.60;81.60;;;;;;4939898;28;100006;-56
2022/04/19 07:51:24;;;;;;;1.42;0.90;;;17.50;80.20;;;;;;4940921;28;95757;-55
2022/04/19 07:53:54;;;;;;;2.53;1.13;;;17.50;81.60;;;;;;4941937;28;95481;-53
2022/04/19 07:56:25;;;;;;;1.20;0.77;;;17.50;81.60;;;;;;4942674;28;96995;-52
2022/04/19 07:58:58;;;;;;;2.47;0.85;;;17.50;81.60;;;;;;4942029;28;95991;-54
2022/04/19 08:01:35;;;;;;;1.67;0.80;;;17.50;81.70;;;;;;4937466;28;97847;-54
2022/04/19 08:04:06;;;;;;;1.77;1.10;;;17.50;81.70;;;;;;4927016;28;95886;-54
2022/04/19 08:06:37;;;;;;;1.58;0.85;;;17.50;81.70;;;;;;4947465;28;96135;-57
2022/04/19 08:09:08;;;;;;;;;;;17.50;81.80;;;;;;4941597;28;95334;-53
2022/04/19 08:11:51;;;;;;;2.08;0.85;;;17.50;81.80;;;;;;4934214;28;95726;-52
2022/04/19 08:14:22;;;;;;;3.03;1.20;;;17.40;81.80;;;;;;4944339;28;95568;-57
2022/04/19 08:16:54;;;;;;;2.55;0.90;;;17.40;81.80;;;;;;4927615;28;95858;-55
2022/04/19 08:19:26;;;;;;;2.00;0.80;;;17.40;81.80;;;;;;4919642;28;95493;-54
2022/04/19 08:21:57;;;;;;;2.08;0.93;;;17.40;81.80;;;;;;4938953;28;95655;-53
2022/04/19 08:24:31;;;;;;;1.92;0.80;;;17.40;81.80;;;;;;4929139;28;95723;-54
2022/04/19 08:27:02;;;;;;;0.70;0.70;;;17.40;81.80;;;;;;4942424;28;96664;-52
2022/04/19 08:29:32;;;;;;;0.80;0.70;;;17.40;80.80;;;;;;4938236;28;96110;-55
2022/04/19 08:32:05;;;;;;;2.50;0.80;;;17.40;81.90;;;;;;4941096;28;95552;-56
2022/04/19 08:34:36;;;;;;;2.03;0.85;;;17.40;82.00;;;;;;4936729;28;96323;-56
2022/04/19 08:37:09;;;;;;;4.20;1.08;;;17.30;82.00;;;;;;4928501;28;95888;-51
2022/04/19 08:39:41;;;;;;;1.95;1.38;;;17.40;81.90;;;;;;4926086;28;95847;-55
2022/04/19 08:42:13;;;;;;;3.22;1.00;;;17.40;82.00;;;;;;4934253;28;96202;-55
2022/04/19 08:44:45;;;;;;;1.92;1.20;;;17.30;81.90;;;;;;4943290;28;95473;-53
2022/04/19 08:47:16;;;;;;;1.08;0.82;;;17.30;81.90;;;;;;4934436;28;96956;-53
2022/04/19 08:49:49;;;;;;;1.17;0.93;;;17.30;82.00;;;;;;4935739;28;95889;-56
2022/04/19 08:52:20;;;;;;;1.05;0.95;;;17.40;82.00;;;;;;4950221;28;95441;-56
2022/04/19 08:57:41;;;;;;;2.10;0.85;;;17.40;81.80;;;;;;4933507;28;95933;-57
2022/04/19 09:00:12;;;;;;;0.95;0.90;;;17.40;81.80;;;;;;4941247;28;95317;-56
2022/04/19 09:02:42;;;;;;;1.02;0.75;;;17.40;81.30;;;;;;4939829;28;98117;-57
2022/04/19 09:05:17;;;;;;;1.50;0.93;;;17.40;81.70;;;;;;4939401;28;96012;-57
2022/04/19 09:07:50;;;;;;;3.10;1.05;;;17.50;81.70;;;;;;4911992;28;97691;-58
2022/04/19 09:10:34;;;;;;;3.15;0.98;;;17.50;81.80;;;;;;4937039;28;96268;-58
2022/04/19 09:13:18;;;;;;;3.70;1.00;;;17.50;82.10;;;;;;4937330;28;97503;-58
2022/04/19 09:15:49;;;;;;;1.13;1.00;;;17.50;81.90;;;;;;4938237;28;95592;-59
2022/04/19 09:18:32;;;;;;;3.08;1.35;;;17.60;81.90;;;;;;4963380;28;96025;-55
2022/04/19 09:21:07;;;;;;;2.13;0.80;;;17.70;81.70;;;;;;4962012;28;96026;-57
2022/04/19 09:23:38;;;;;;;0.95;0.70;;;17.60;81.60;;;;;;4962661;28;95871;-58
2022/04/19 09:26:09;;;;;;;1.20;1.10;;;17.70;81.70;;;;;;4961238;28;96693;-57
2022/04/19 09:28:40;;;;;;;1.58;0.93;;;17.70;81.70;;;;;;4956692;28;96437;-56
2022/04/19 09:31:12;;;;;;;3.90;1.10;;;17.80;82.30;;;;;;4952475;28;96166;-57
2022/04/19 09:33:45;;;;;;;1.73;1.00;;;17.80;81.60;;;;;;4960371;28;95441;-57
2022/04/19 09:36:27;;;;;;;0.73;0.70;;;17.80;81.60;;;;;;4960693;28;96405;-57
2022/04/19 09:38:57;;;;;;;1.05;0.93;;;17.90;81.50;;;;;;4960252;28;96596;-56
2022/04/19 09:41:32;;;;;;;1.13;1.03;;;17.90;81.30;;;;;;4948963;28;96494;-56
2022/04/19 09:44:13;;;;;;;2.42;0.90;;;17.90;81.30;;;;;;4954689;28;95661;-55
2022/04/19 09:47:08;;;;;;;2.47;0.85;;;17.90;81.20;;;;;;4951322;28;95845;-53
2022/04/19 09:49:52;;;;;;;2.17;1.75;;;18.00;81.20;;;;;;4960412;28;96680;-57
2022/04/19 09:52:24;;;;;;;1.20;0.73;;;18.00;81.10;;;;;;4959551;28;96382;-57
2022/04/19 09:55:01;;;;;;;2.60;0.90;;;18.10;80.90;;;;;;4958430;28;95961;-55
2022/04/19 09:57:38;;;;;;;2.90;1.33;;;18.10;80.70;;;;;;4958593;28;95969;-56
2022/04/19 10:00:12;;;;;;;1.00;0.90;;;18.10;81.30;;;;;;4958274;28;96685;-58
2022/04/19 10:08:24;;;;;;;1.38;1.25;;;18.20;80.30;;;;;;4961322;28;95990;-56
2022/04/19 10:10:56;;;;;;;1.55;0.98;;;18.20;80.10;;;;;;4957893;28;96219;-55
2022/04/19 10:13:29;;;;;;;1.77;1.20;;;18.20;80.10;;;;;;4959207;28;96397;-54
2022/04/19 10:16:15;;;;;;;3.05;1.23;;;18.30;80.20;;;;;;4950482;28;95706;-56
2022/04/19 10:18:50;;;;;;;4.18;1.30;;;18.20;80.30;;;;;;4954809;28;95848;-57
2022/04/19 10:21:28;;;;;;;2.80;1.17;;;18.20;80.40;;;;;;4960629;28;96696;-57
2022/04/19 10:24:17;;;;;;;1.48;1.08;;;18.20;80.50;;;;;;4958918;28;96794;-57
2022/04/19 10:26:48;;;;;;;2.25;1.08;;;18.20;80.40;;;;;;4962389;28;95428;-54
2022/04/19 10:29:34;;;;;;;1.10;1.00;;;18.20;80.40;;;;;;4962958;28;95603;-56
2022/04/19 10:32:10;;;;;;;1.98;1.08;;;18.20;80.40;;;;;;4947420;28;96693;-58
2022/04/19 10:34:44;;;;;;;1.90;1.45;;;18.20;80.50;;;;;;4945291;28;95904;-58
2022/04/19 10:37:18;;;;;;;1.83;1.48;;;18.20;80.40;;;;;;4947714;28;96394;-55
2022/04/19 10:39:58;;;;;;;1.27;1.17;;;18.20;80.30;;;;;;4943249;28;97033;-57
2022/04/19 10:42:34;;;;;;;1.75;1.33;;;18.30;80.30;;;;;;4933144;28;95871;-54
2022/04/19 10:45:15;;;;;;;2.17;0.98;;;18.30;80.20;;;;;;4947923;28;96491;-58
2022/04/19 10:47:59;;;;;;;1.40;1.13;;;18.30;79.20;;;;;;4958175;28;95693;-58
2022/04/19 10:50:39;;;;;;;1.08;1.00;;;18.30;80.20;;;;;;4957876;28;96037;-57
2022/04/19 10:53:14;;;;;;;1.10;1.00;;;18.30;80.20;;;;;;4957435;28;95883;-58
2022/04/19 10:56:05;;;;;;;1.75;1.02;;;18.30;80.10;;;;;;4958915;28;96104;-60
2022/04/19 10:58:43;;;;;;;3.57;1.30;;;18.30;80.00;;;;;;4959304;28;96540;-59
2022/04/19 11:01:30;;;;;;;1.08;0.80;;;18.30;80.00;;;;;;4956138;28;96305;-58
2022/04/19 11:04:02;;;;;;;1.48;1.27;;;18.30;80.00;;;;;;4959737;28;96114;-61
2022/04/19 11:06:34;;;;;;;1.25;1.13;;;18.30;79.90;;;;;;4958074;28;98633;-60
2022/04/19 11:09:19;;;;;;;1.23;1.13;;;18.30;79.90;;;;;;4952210;28;95794;-57
2022/04/19 11:11:52;;;;;;;2.92;1.20;;;18.40;79.80;;;;;;4956885;28;95902;-59
2022/04/19 11:14:40;;;;;;;1.50;1.13;;;18.40;79.80;;;;;;4955846;28;97256;-56
2022/04/19 11:17:28;;;;;;;1.85;1.30;;;18.30;79.70;;;;;;4951982;28;96577;-57
2022/04/19 11:20:19;;;;;;;2.15;1.25;;;18.40;79.70;;;;;;4962140;28;98112;-58
2022/04/19 11:22:54;;;;;;;1.88;0.95;;;18.40;79.70;;;;;;4957142;28;96411;-58
2022/04/19 11:25:52;;;;;;;2.63;1.00;;;18.40;79.70;;;;;;4956986;28;96732;-59
2022/04/19 11:28:31;;;;;;;3.53;1.20;;;18.40;79.80;;;;;;4960032;28;95382;-57
2022/04/19 11:31:01;;;;;;;1.70;1.00;;;18.40;79.80;;;;;;4949844;28;97327;-57
2022/04/19 11:33:39;;;;;;;1.20;1.13;;;18.40;79.80;;;;;;4964738;28;95833;-56
2022/04/19 11:36:16;;;;;;;1.55;1.27;;;18.50;79.70;;;;;;4936530;28;95957;-57
2022/04/19 11:38:51;;;;;;;1.85;1.20;;;18.50;79.60;;;;;;4939712;28;95646;-58
2022/04/19 11:46:52;;;;;;;1.48;1.17;;;18.50;80.00;;;;;;4933436;28;96428;-57
2022/04/19 11:49:34;;;;;;;2.67;1.13;;;18.50;80.10;;;;;;4941484;28;95658;-58
2022/04/19 11:52:09;;;;;;;2.65;1.10;;;18.60;80.10;;;;;;4941064;28;96612;-57
2022/04/19 11:54:42;;;;;;;0.95;0.90;;;18.80;79.80;;;;;;4943111;28;95259;-57
2022/04/19 11:57:13;;;;;;;1.50;1.10;;;19.00;79.40;;;;;;4938590;28;96411;-58
2022/04/19 11:59:44;;;;;;;2.05;1.23;;;19.00;78.00;;;;;;4939049;28;95922;-57
2022/04/19 12:02:18;;;;;;;1.80;1.45;;;19.20;79.00;;;;;;4934067;28;98403;-57
2022/04/19 12:04:51;;;;;;;1.45;1.10;;;19.30;78.80;;;;;;4940927;28;95637;-57
2022/04/19 12:07:25;;;;;;;1.40;1.20;;;19.40;78.50;;;;;;4943036;28;96018;-57
2022/04/19 12:09:59;;;;;;;1.42;1.30;;;19.40;78.30;;;;;;4940916;28;99482;-58
2022/04/19 12:12:31;;;;;;;1.10;1.00;;;19.60;78.00;;;;;;4944311;28;96084;-56
2022/04/19 12:15:06;;;;;;;1.95;1.30;;;19.70;78.30;;;;;;4936063;28;96647;-57
2022/04/19 12:17:47;;;;;;;1.70;1.45;;;19.70;77.50;;;;;;4933691;28;95884;-57
2022/04/19 12:20:19;;;;;;;1.20;1.00;;;19.80;77.30;;;;;;4941876;28;95944;-56
2022/04/19 12:22:50;;;;;;;2.13;1.35;;;19.90;77.20;;;;;;4946014;28;95909;-58
2022/04/19 12:25:23;;;;;;;1.77;1.60;;;20.00;77.00;;;;;;4945284;28;95609;-58
2022/04/19 12:27:55;;;;;;;1.73;1.52;;;20.00;76.80;;;;;;4945995;28;95904;-60
2022/04/19 12:30:29;;;;;;;1.30;1.20;;;20.00;76.60;;;;;;4935114;28;97911;-55
2022/04/19 12:33:03;;;;;;;1.08;1.05;;;20.10;76.60;;;;;;4961519;28;95972;-58
2022/04/19 12:35:35;;;;;;;1.23;1.13;;;20.10;76.40;;;;;;4963444;28;96860;-59
2022/04/19 12:38:10;;;;;;;1.20;1.10;;;20.20;76.20;;;;;;4964959;28;95958;-56
2022/04/19 12:40:43;;;;;;;1.00;1.00;;;20.20;76.10;;;;;;4956749;28;100075;-58
2022/04/19 12:43:15;;;;;;;1.17;1.10;;;20.30;75.90;;;;;;4960218;28;96518;-58
2022/04/19 12:45:48;;;;;;;1.60;1.45;;;20.40;75.70;;;;;;4956061;28;95582;-59
2022/04/19 12:48:22;;;;;;;2.03;1.15;;;20.40;75.70;;;;;;4960367;28;96311;-59
2022/04/19 12:51:03;;;;;;;1.77;1.40;;;20.40;75.50;;;;;;4976499;28;96336;-61
2022/04/19 12:53:36;;;;;;;1.70;1.52;;;20.50;75.40;;;;;;4965104;28;95625;-58
2022/04/19 12:57:17;;;;;;;1.50;1.38;;;20.50;75.30;;;;;;4966034;28;95331;-58
2022/04/19 12:59:49;;;;;;;2.10;1.15;;;20.60;74.80;;;;;;4964960;28;96587;-60
2022/04/19 13:02:20;;;;;;;2.13;1.30;;;20.50;74.90;;;;;;4959683;28;95878;-61
2022/04/19 13:04:59;;;;;;;1.63;1.42;;;20.60;75.00;;;;;;4964185;28;95965;-63
2022/04/19 13:13:13;;;;;;;6.30;1.25;;;20.80;74.70;;;;;;4965957;28;96068;-56
2022/04/19 13:15:43;;;;;;;1.70;1.33;;;20.90;74.30;;;;;;4959490;28;96061;-57
2022/04/19 13:18:13;;;;;;;2.75;1.30;;;20.90;74.20;;;;;;4966272;28;96669;-57
2022/04/19 13:20:45;;;;;;;;;;;20.90;74.30;;;;;;4962372;28;95858;-57
2022/04/19 13:23:16;;;;;;;2.08;1.63;;;21.00;74.30;;;;;;4961722;28;96481;-59
2022/04/19 13:25:49;;;;;;;1.40;1.27;;;21.10;74.80;;;;;;4963698;28;95398;-58
2022/04/19 13:28:19;;;;;;;2.28;1.60;;;21.20;74.20;;;;;;4966578;28;96116;-57
2022/04/19 13:30:50;;;;;;;1.27;1.15;;;21.20;74.10;;;;;;4957417;28;98674;-59
2022/04/19 13:33:21;;;;;;;;;;;21.20;74.10;;;;;;4965245;28;96199;-59
2022/04/19 13:35:53;;;;;;;1.35;1.25;;;21.30;74.10;;;;;;4966649;28;95321;-56
2022/04/19 13:38:25;;;;;;;2.33;1.30;;;21.30;74.00;;;;;;4961697;28;96788;-59
2022/04/19 13:40:58;;;;;;;1.35;1.25;;;21.30;74.60;;;;;;4952207;28;98899;-59
2022/04/19 13:43:29;;;;;;;1.30;1.20;;;21.40;74.00;;;;;;4959033;28;95892;-57
2022/04/19 13:46:01;;;;;;;4.97;1.17;;;21.40;73.90;;;;;;4956399;28;95771;-59
2022/04/19 13:48:31;;;;;;;1.08;1.00;;;21.50;73.90;;;;;;4964973;28;95932;-56
2022/04/19 13:51:02;;;;;;;1.43;1.17;;;21.50;73.80;;;;;;4966939;28;95980;-61
2022/04/19 13:53:33;;;;;;;;;;;21.60;74.40;;;;;;4964503;28;96076;-60
2022/04/19 13:56:05;;;;;;;0.93;0.90;;;21.60;73.70;;;;;;4959677;28;95714;-60
2022/04/19 13:58:35;;;;;;;1.35;1.27;;;21.60;74.20;;;;;;4966424;28;98372;-58
2022/04/19 14:01:05;;;;;;;2.80;1.58;;;21.60;74.00;;;;;;4954887;28;99139;-57
2022/04/19 14:03:35;;;;;;;2.10;1.42;;;21.40;69.90;;;;;;4965516;28;99036;-58
2022/04/19 14:06:06;;;;;;;4.53;1.42;;;21.20;71.80;;;;;;4964060;28;95801;-61
2022/04/19 14:08:38;;;;;;;2.03;1.63;;;21.30;72.50;;;;;;4964030;28;96005;-58